Time;durP1;ratioP1;P1;durP2;ratioP2;P2;SDS_P1;SDS_P2;PMS_P1;PMS_P2;Temp;Humidity;BMP_temperature;BMP_pressure;BME280_temperature;BME280_humidity;BME280_pressure;Samples;Min_cycle;Max_cycle;Signal;HPM_P1;HPM_P2
2022/03/20 00:00:17;;;;;;;42.90;38.60;;;;;;;0.62;37.19;100324.13;105851;1279;22619;-78
2022/03/20 00:03:10;;;;;;;45.60;38.20;;;;;;;0.59;37.09;100319.88;105749;1279;22541;-75
2022/03/20 00:05:40;;;;;;;40.80;36.50;;;;;;;0.56;37.16;100315.89;105502;1281;22697;-74
2022/03/20 00:08:09;;;;;;;42.40;38.10;;;;;;;0.55;37.19;100314.00;105545;1279;24317;-75
2022/03/20 00:10:40;;;;;;;42.40;37.90;;;;;;;0.53;37.22;100312.29;105451;1279;24344;-75
2022/03/20 00:13:10;;;;;;;45.50;37.30;;;;;;;0.50;37.06;100314.36;106114;1280;22585;-76
2022/03/20 00:15:42;;;;;;;42.30;37.80;;;;;;;0.48;37.17;100314.80;105888;1280;22702;-76
2022/03/20 00:18:13;;;;;;;44.20;39.70;;;;;;;0.45;37.29;100309.38;105687;1280;22552;-78
2022/03/20 00:20:47;;;;;;;41.10;36.80;;;;;;;0.44;37.17;100305.60;105611;1280;22744;-79
2022/03/20 00:23:17;;;;;;;39.40;35.40;;;;;;;0.42;37.19;100304.72;105564;1283;22664;-77
2022/03/20 00:25:46;;;;;;;40.60;36.60;;;;;;;0.42;37.14;100306.34;106013;1280;25422;-76
2022/03/20 00:28:18;;;;;;;41.50;36.30;;;;;;;0.44;37.14;100305.66;105474;1279;22653;-76
2022/03/20 00:30:47;;;;;;;38.60;34.80;;;;;;;0.43;37.02;100301.66;105629;1279;24402;-75
2022/03/20 00:33:17;;;;;;;41.60;37.50;;;;;;;0.41;37.15;100303.63;105550;1281;25476;-75
2022/03/20 00:35:46;;;;;;;40.80;36.80;;;;;;;0.40;37.16;100304.29;105714;1279;22916;-76
2022/03/20 00:38:14;;;;;;;39.50;35.40;;;;;;;0.38;37.11;100299.02;105791;1280;25347;-75
2022/03/20 00:40:43;;;;;;;40.80;36.90;;;;;;;0.36;37.16;100301.46;105508;1280;22822;-75
2022/03/20 00:43:12;;;;;;;41.50;37.40;;;;;;;0.32;37.09;100303.77;105352;1282;22715;-74
2022/03/20 00:45:40;;;;;;;39.10;35.00;;;;;;;0.30;37.11;100310.83;105674;1280;24438;-74
2022/03/20 00:48:08;;;;;;;39.20;35.20;;;;;;;0.28;37.21;100311.55;105558;1281;22560;-75
2022/03/20 00:50:36;;;;;;;38.30;34.90;;;;;;;0.26;37.27;100308.57;105640;1281;25494;-75
2022/03/20 00:53:04;;;;;;;41.70;37.70;;;;;;;0.25;37.17;100305.66;105672;1280;22833;-75
2022/03/20 00:55:33;;;;;;;44.30;40.00;;;;;;;0.21;37.33;100306.12;105654;1280;22671;-76
2022/03/20 00:58:00;;;;;;;41.10;36.90;;;;;;;0.16;37.15;100308.10;105631;1280;24419;-75
2022/03/20 01:00:28;;;;;;;42.00;38.10;;;;;;;0.11;37.14;100309.36;105589;1280;25421;-75
2022/03/20 01:02:56;;;;;;;39.70;36.10;;;;;;;0.06;37.09;100308.68;105459;1281;22793;-77
2022/03/20 01:05:24;;;;;;;40.90;36.70;;;;;;;0.01;37.27;100308.34;105256;1281;22679;-75
2022/03/20 01:07:52;;;;;;;40.90;36.90;;;;;;;-0.07;37.17;100304.26;105720;1280;23883;-75
2022/03/20 01:10:20;;;;;;;48.00;43.10;;;;;;;-0.14;37.19;100300.64;105679;1281;22563;-73
2022/03/20 01:12:48;;;;;;;41.80;37.60;;;;;;;-0.23;37.27;100297.45;105650;1280;25435;-75
2022/03/20 01:15:16;;;;;;;44.10;39.50;;;;;;;-0.31;37.37;100292.23;105667;1281;22558;-75
2022/03/20 01:17:50;;;;;;;42.50;38.30;;;;;;;-0.36;37.31;100294.64;105690;1280;22555;-75
2022/03/20 01:20:17;;;;;;;38.80;35.00;;;;;;;-0.41;37.41;100291.98;105622;1279;22842;-76
2022/03/20 01:22:45;;;;;;;41.50;37.50;;;;;;;-0.45;37.56;100289.59;105660;1280;22677;-76
2022/03/20 01:25:19;;;;;;;41.60;37.50;;;;;;;-0.48;37.57;100292.56;105502;1280;184862;-73
2022/03/20 01:27:47;;;;;;;39.60;35.70;;;;;;;-0.50;37.73;100288.23;105622;1279;22546;-75
2022/03/20 01:30:15;;;;;;;39.50;35.30;;;;;;;-0.51;37.80;100286.80;105713;1281;25391;-77
2022/03/20 01:32:43;;;;;;;41.40;37.50;;;;;;;-0.49;37.92;100285.13;105740;1281;22556;-75
2022/03/20 01:35:11;;;;;;;40.90;37.20;;;;;;;-0.46;37.97;100283.89;105568;1281;23413;-78
2022/03/20 01:37:42;;;;;;;41.00;37.00;;;;;;;-0.39;38.11;100283.51;105890;1281;26498;-77
2022/03/20 01:40:10;;;;;;;40.10;35.90;;;;;;;-0.33;38.28;100286.48;105964;1280;22662;-78
2022/03/20 01:42:39;;;;;;;42.30;38.10;;;;;;;-0.26;38.46;100285.00;106574;1280;22562;-77
2022/03/20 01:45:16;;;;;;;40.00;36.20;;;;;;;-0.19;38.40;100284.29;106075;1280;25201;-76
2022/03/20 01:47:47;;;;;;;44.90;40.40;;;;;;;-0.13;38.12;100289.60;106086;1281;24246;-77
2022/03/20 01:50:34;;;;;;;53.20;47.90;;;;;;;-0.12;38.21;100288.75;105936;1283;22771;-77
2022/03/20 01:53:08;;;;;;;69.60;62.10;;;;;;;-0.18;38.16;100287.16;105921;1281;22525;-77
2022/03/20 01:55:36;;;;;;;81.00;69.60;;;;;;;-0.29;38.13;100289.45;106072;1281;24246;-77
2022/03/20 01:58:04;;;;;;;71.50;64.00;;;;;;;-0.43;38.20;100291.30;105810;1284;22608;-76
2022/03/20 02:00:33;;;;;;;67.10;57.60;;;;;;;-0.54;38.26;100292.35;105608;1282;24375;-76
2022/03/20 02:03:01;;;;;;;60.60;54.40;;;;;;;-0.66;38.37;100294.54;105936;1279;25309;-75
2022/03/20 02:05:30;;;;;;;61.10;55.10;;;;;;;-0.79;38.53;100295.23;105827;1281;25269;-75
2022/03/20 02:07:59;;;;;;;59.60;53.70;;;;;;;-0.93;38.63;100297.34;105654;1280;22550;-75
2022/03/20 02:10:35;;;;;;;56.10;50.50;;;;;;;-1.09;38.79;100294.95;105805;1281;22565;-75
2022/03/20 02:13:05;;;;;;;57.60;51.90;;;;;;;-1.22;38.86;100295.42;105541;1281;25417;-75
2022/03/20 02:15:34;;;;;;;60.70;54.80;;;;;;;-1.34;38.94;100296.23;105316;1284;25347;-75
2022/03/20 02:18:05;;;;;;;60.20;53.90;;;;;;;-1.44;39.28;100294.77;105478;1280;25371;-77
2022/03/20 02:20:33;;;;;;;59.90;54.10;;;;;;;-1.53;39.18;100294.67;105958;1280;22569;-80
2022/03/20 02:23:01;;;;;;;55.90;50.40;;;;;;;-1.63;39.29;100296.55;105874;1279;25533;-79
2022/03/20 02:25:29;;;;;;;57.60;51.60;;;;;;;-1.70;39.46;100289.76;105785;1281;22565;-75
2022/03/20 02:27:57;;;;;;;57.30;51.70;;;;;;;-1.76;39.73;100286.15;105692;1281;22580;-75
2022/03/20 02:30:30;;;;;;;54.30;49.10;;;;;;;-1.78;39.96;100287.08;105456;1279;26556;-75
2022/03/20 02:32:59;;;;;;;53.70;48.20;;;;;;;-1.80;40.01;100287.31;105641;1281;22563;-75
2022/03/20 02:35:27;;;;;;;54.20;48.60;;;;;;;-1.80;40.48;100283.11;105625;1280;22723;-76
2022/03/20 02:37:57;;;;;;;53.70;48.50;;;;;;;-1.79;40.80;100280.30;105694;1281;22662;-76
2022/03/20 02:40:25;;;;;;;53.30;48.00;;;;;;;-1.76;41.12;100277.95;105658;1281;25387;-76
2022/03/20 02:42:54;;;;;;;52.10;46.90;;;;;;;-1.72;41.51;100279.80;105862;1281;22573;-74
2022/03/20 02:45:28;;;;;;;52.60;47.70;;;;;;;-1.68;41.38;100277.41;105706;1281;24228;-74
2022/03/20 02:47:58;;;;;;;52.20;47.10;;;;;;;-1.62;41.60;100275.91;105614;1281;25324;-75
2022/03/20 02:50:29;;;;;;;50.70;45.70;;;;;;;-1.56;41.82;100276.68;105623;1281;22663;-74
2022/03/20 02:53:01;;;;;;;46.90;42.40;;;;;;;-1.51;41.57;100275.77;105688;1281;25472;-75
2022/03/20 02:55:31;;;;;;;48.50;43.60;;;;;;;-1.47;41.41;100279.05;105677;1281;24479;-75
2022/03/20 02:58:01;;;;;;;46.70;42.20;;;;;;;-1.43;41.26;100271.77;105692;1281;24459;-75
2022/03/20 03:00:31;;;;;;;47.20;42.20;;;;;;;-1.39;41.28;100268.66;105369;1281;22539;-75
2022/03/20 03:03:01;;;;;;;44.60;40.30;;;;;;;-1.31;41.73;100270.91;105460;1281;22720;-76
2022/03/20 03:05:32;;;;;;;43.80;39.50;;;;;;;-1.23;41.73;100262.71;105636;1281;22608;-76
2022/03/20 03:10:57;;;;;;;44.30;39.80;;;;;;;-1.09;41.82;100262.17;105613;1281;24454;-75
2022/03/20 03:13:36;;;;;;;44.10;39.60;;;;;;;-1.02;41.70;100263.10;105869;1281;25589;-75
2022/03/20 03:16:11;;;;;;;45.20;40.90;;;;;;;-0.95;41.61;100260.77;105869;1281;22559;-75
2022/03/20 03:18:43;;;;;;;45.40;40.80;;;;;;;-0.90;41.51;100260.64;105384;1283;25449;-75
2022/03/20 03:21:13;;;;;;;47.20;42.50;;;;;;;-0.88;41.30;100254.39;105584;1281;23115;-75
2022/03/20 03:23:41;;;;;;;49.20;44.00;;;;;;;-0.85;41.56;100257.98;105666;1281;23855;-74
2022/03/20 03:26:10;;;;;;;47.20;42.20;;;;;;;-0.83;41.40;100264.11;105669;1280;22851;-76
2022/03/20 03:28:38;;;;;;;45.80;41.20;;;;;;;-0.82;41.54;100268.02;105630;1281;25404;-76
2022/03/20 03:31:09;;;;;;;44.00;39.80;;;;;;;-0.81;41.36;100270.56;105581;1280;24559;-80
2022/03/20 03:35:41;;;;;;;46.10;41.70;;;;;;;-0.81;41.29;100278.38;105935;1281;25442;-77
2022/03/20 03:36:27;;;;;;;45.60;41.20;;;;;;;-0.83;41.23;100275.92;105675;1279;24441;-76
2022/03/20 03:38:55;;;;;;;46.50;42.10;;;;;;;-0.87;41.13;100272.98;105910;1280;24097;-76
2022/03/20 03:41:24;;;;;;;46.00;41.50;;;;;;;-0.91;41.14;100273.27;105888;1280;22560;-75
2022/03/20 03:43:52;;;;;;;46.00;41.00;;;;;;;-0.97;41.20;100274.54;105882;1280;23351;-75
2022/03/20 03:46:20;;;;;;;45.50;41.00;;;;;;;-1.03;41.29;100272.02;105835;1279;22613;-76
2022/03/20 03:48:48;;;;;;;46.50;41.80;;;;;;;-1.07;41.31;100269.55;105855;1280;24303;-76
2022/03/20 03:51:16;;;;;;;44.90;40.50;;;;;;;-1.12;41.63;100271.42;105570;1279;22588;-76
2022/03/20 03:53:44;;;;;;;47.20;42.60;;;;;;;-1.16;41.73;100266.89;105928;1280;24345;-76
2022/03/20 03:56:12;;;;;;;46.10;41.50;;;;;;;-1.19;41.85;100262.66;106135;1279;22563;-76
2022/03/20 03:58:40;;;;;;;47.70;43.20;;;;;;;-1.21;41.72;100265.02;106028;1280;24239;-76
2022/03/20 04:01:09;;;;;;;48.60;43.50;;;;;;;-1.23;41.65;100269.64;106461;1280;22532;-76
2022/03/20 04:03:37;;;;;;;50.30;45.20;;;;;;;-1.25;42.23;100272.96;105898;1280;23382;-75
2022/03/20 04:06:05;;;;;;;48.50;43.50;;;;;;;-1.24;42.29;100273.06;105881;1279;23087;-75
2022/03/20 04:08:35;;;;;;;53.50;44.10;;;;;;;-1.23;41.95;100275.15;105792;1279;24134;-76
2022/03/20 04:11:03;;;;;;;49.30;42.80;;;;;;;-1.23;42.11;100274.36;105700;1280;22568;-76
2022/03/20 04:13:31;;;;;;;50.00;45.00;;;;;;;-1.22;42.51;100275.27;105716;1280;25411;-76
2022/03/20 04:16:00;;;;;;;50.90;45.70;;;;;;;-1.21;42.16;100278.52;105567;1280;23196;-76
2022/03/20 04:18:28;;;;;;;50.60;45.60;;;;;;;-1.21;42.13;100279.30;105376;1280;22626;-76
2022/03/20 04:20:55;;;;;;;50.90;45.70;;;;;;;-1.23;42.34;100277.52;105348;1280;26658;-76
2022/03/20 04:26:10;;;;;;;53.40;47.90;;;;;;;-1.31;42.12;100284.95;105647;1280;24399;-76
2022/03/20 04:28:38;;;;;;;55.70;50.20;;;;;;;-1.37;42.37;100287.64;105674;1279;24256;-76
2022/03/20 04:31:06;;;;;;;54.90;49.50;;;;;;;-1.43;42.25;100287.95;105628;1280;22576;-75
2022/03/20 04:33:34;;;;;;;59.30;53.00;;;;;;;-1.49;42.41;100289.30;105485;1280;26650;-74
2022/03/20 04:36:03;;;;;;;59.90;53.50;;;;;;;-1.56;42.44;100291.30;105460;1280;25366;-76
2022/03/20 04:38:31;;;;;;;57.10;51.40;;;;;;;-1.63;42.43;100298.04;105542;1281;22655;-75
2022/03/20 04:40:59;;;;;;;57.90;51.60;;;;;;;-1.71;42.53;100300.79;105579;1280;24146;-76
2022/03/20 04:43:27;;;;;;;59.90;53.80;;;;;;;-1.77;42.57;100304.61;105647;1280;24272;-74
2022/03/20 04:45:55;;;;;;;62.60;56.20;;;;;;;-1.83;42.98;100310.86;105641;1280;22567;-76
2022/03/20 04:59:29;;;;;;;61.60;54.30;;;;;;;-2.14;43.49;100331.88;105448;1280;22573;-76
2022/03/20 05:01:59;;;;;;;59.80;53.50;;;;;;;-2.20;43.68;100329.84;105649;1279;25443;-76
2022/03/20 05:04:27;;;;;;;58.40;52.60;;;;;;;-2.25;43.84;100327.16;105671;1279;22822;-76
2022/03/20 05:06:55;;;;;;;60.50;54.70;;;;;;;-2.29;43.98;100329.77;105619;1280;25747;-75
2022/03/20 05:14:58;;;;;;;60.30;54.30;;;;;;;-2.31;44.64;100334.09;105361;1282;22822;-74
2022/03/20 05:17:28;;;;;;;64.20;57.20;;;;;;;-2.29;44.59;100333.54;105619;1280;22754;-75
2022/03/20 05:19:56;;;;;;;57.90;52.10;;;;;;;-2.25;44.83;100328.51;105657;1280;22563;-75
2022/03/20 05:22:24;;;;;;;58.00;52.10;;;;;;;-2.20;45.15;100327.28;105644;1279;25310;-75
2022/03/20 05:24:53;;;;;;;58.50;52.40;;;;;;;-2.15;45.30;100325.73;105651;1280;22554;-76
2022/03/20 05:27:20;;;;;;;54.50;49.20;;;;;;;-2.09;44.94;100330.03;105672;1280;22711;-76
2022/03/20 05:29:48;;;;;;;59.30;53.50;;;;;;;-2.02;44.71;100335.38;105658;1280;22501;-76
2022/03/20 05:32:16;;;;;;;59.00;53.30;;;;;;;-1.97;44.61;100340.62;105603;1280;22791;-76
2022/03/20 05:34:44;;;;;;;67.30;60.80;;;;;;;-1.91;44.52;100342.34;105625;1279;24309;-75
2022/03/20 05:37:12;;;;;;;66.80;60.40;;;;;;;-1.85;44.43;100343.86;105633;1279;23147;-78
2022/03/20 05:39:40;;;;;;;77.60;70.20;;;;;;;-1.79;44.42;100348.38;105889;1279;23604;-76
2022/03/20 05:42:08;;;;;;;76.20;68.80;;;;;;;-1.74;44.29;100349.39;105326;1280;22570;-75
2022/03/20 05:44:36;;;;;;;71.80;65.10;;;;;;;-1.69;44.20;100350.79;105633;1280;24451;-75
2022/03/20 05:47:04;;;;;;;69.80;63.10;;;;;;;-1.64;44.21;100350.32;105602;1279;23040;-76
2022/03/20 05:49:32;;;;;;;69.60;63.10;;;;;;;-1.62;44.33;100354.63;105619;1280;25402;-75
2022/03/20 05:52:00;;;;;;;71.30;64.00;;;;;;;-1.58;44.28;100354.96;105626;1280;22559;-74
2022/03/20 05:54:28;;;;;;;67.00;60.10;;;;;;;-1.54;44.39;100355.45;105848;1279;22725;-75
2022/03/20 05:59:43;;;;;;;64.20;57.30;;;;;;;-1.46;44.39;100354.91;105582;1279;22559;-75
2022/03/20 06:02:11;;;;;;;63.70;57.40;;;;;;;-1.42;44.31;100353.64;105649;1279;25387;-76
2022/03/20 06:04:39;;;;;;;66.10;59.80;;;;;;;-1.43;44.37;100350.65;105707;1280;25477;-77
2022/03/20 06:07:08;;;;;;;62.90;56.30;;;;;;;-1.32;44.52;100360.67;105643;1279;25412;-76
2022/03/20 06:09:37;;;;;;;63.70;57.50;;;;;;;-1.27;44.58;100367.21;105728;1280;22624;-76
2022/03/20 06:12:07;;;;;;;65.90;59.80;;;;;;;-1.22;44.61;100367.70;105879;1279;22605;-76
2022/03/20 06:14:35;;;;;;;63.60;57.10;;;;;;;-1.15;44.59;100368.13;105629;1279;25403;-76
2022/03/20 06:17:05;;;;;;;61.50;55.40;;;;;;;-1.10;44.62;100369.23;105944;1279;23286;-76
2022/03/20 06:19:35;;;;;;;62.10;56.20;;;;;;;-1.05;44.63;100374.23;105756;1279;24317;-75
2022/03/20 06:22:04;;;;;;;59.00;53.10;;;;;;;-0.99;44.66;100369.34;105526;1279;23975;-75
2022/03/20 06:24:32;;;;;;;60.70;54.40;;;;;;;-0.92;44.80;100370.25;105667;1279;22549;-76
2022/03/20 06:27:02;;;;;;;57.90;52.50;;;;;;;-0.85;44.95;100371.75;105673;1279;22602;-76
2022/03/20 06:29:31;;;;;;;60.50;54.70;;;;;;;-0.78;45.13;100371.92;105698;1279;22688;-76
2022/03/20 06:31:58;;;;;;;61.40;55.30;;;;;;;-0.71;45.04;100375.73;105402;1283;22605;-76
2022/03/20 06:34:27;;;;;;;61.30;55.30;;;;;;;-0.63;45.04;100382.13;105566;1280;22574;-75
2022/03/20 06:36:57;;;;;;;60.60;54.80;;;;;;;-0.55;45.11;100384.97;105647;1279;26599;-76
2022/03/20 06:39:25;;;;;;;58.50;52.80;;;;;;;-0.48;45.12;100384.38;105676;1279;25373;-76
2022/03/20 06:41:53;;;;;;;56.50;50.80;;;;;;;-0.40;45.16;100383.88;105358;1282;22728;-75
2022/03/20 06:44:22;;;;;;;57.10;51.50;;;;;;;-0.31;45.08;100385.19;105320;1279;23951;-76
2022/03/20 06:46:50;;;;;;;57.30;51.80;;;;;;;-0.22;45.17;100390.75;105611;1279;23950;-76
2022/03/20 06:49:18;;;;;;;58.20;52.50;;;;;;;-0.13;45.15;100391.90;105612;1279;22570;-75
2022/03/20 06:51:46;;;;;;;59.20;53.30;;;;;;;-0.03;45.21;100402.41;105638;1279;25379;-75
2022/03/20 06:54:14;;;;;;;55.70;50.20;;;;;;;0.07;45.26;100403.86;105444;1281;22602;-74
2022/03/20 06:56:42;;;;;;;58.80;53.40;;;;;;;0.14;45.00;100404.46;105350;1279;22949;-76
2022/03/20 06:59:14;;;;;;;58.80;53.00;;;;;;;0.23;45.00;100406.13;105667;1279;22663;-75
2022/03/20 07:01:42;;;;;;;60.50;53.40;;;;;;;0.32;44.88;100408.43;105639;1280;24394;-75
2022/03/20 07:04:10;;;;;;;54.70;49.30;;;;;;;0.43;44.84;100416.41;105639;1279;25434;-76
2022/03/20 07:06:38;;;;;;;54.80;49.50;;;;;;;0.52;44.82;100421.10;105746;1279;25332;-76
2022/03/20 07:09:06;;;;;;;54.00;48.90;;;;;;;0.61;44.72;100419.23;105511;1279;24416;-75
2022/03/20 07:11:34;;;;;;;57.80;49.50;;;;;;;0.71;44.71;100421.48;105580;1279;22697;-77
2022/03/20 07:14:03;;;;;;;52.00;46.90;;;;;;;0.79;44.63;100425.16;105638;1279;25348;-76
2022/03/20 07:16:33;;;;;;;54.20;49.00;;;;;;;0.85;44.45;100427.98;105930;1279;24143;-76
2022/03/20 07:19:02;;;;;;;54.90;49.50;;;;;;;0.90;44.28;100428.99;105223;1280;22543;-76
2022/03/20 07:21:32;;;;;;;52.70;47.30;;;;;;;0.98;44.48;100434.29;105784;1279;22585;-76
2022/03/20 07:24:02;;;;;;;54.80;49.30;;;;;;;1.06;44.20;100435.55;105587;1279;22559;-77
2022/03/20 07:29:29;;;;;;;60.80;54.90;;;;;;;1.18;44.16;100442.52;105830;1281;22562;-77
2022/03/20 07:31:59;;;;;;;55.00;49.90;;;;;;;1.26;44.11;100443.56;105374;1282;25370;-76
2022/03/20 07:34:27;;;;;;;52.80;47.60;;;;;;;1.35;43.98;100444.77;105878;1281;25485;-75
2022/03/20 07:36:55;;;;;;;49.80;44.90;;;;;;;1.46;44.05;100444.46;105573;1281;22566;-75
2022/03/20 07:39:23;;;;;;;53.20;48.00;;;;;;;1.54;43.78;100447.06;105611;1281;22856;-76
2022/03/20 07:41:51;;;;;;;51.90;46.90;;;;;;;1.63;43.72;100448.74;105198;1282;22572;-75
2022/03/20 07:44:25;;;;;;;52.80;47.60;;;;;;;1.70;43.68;100448.89;105646;1282;22720;-76
2022/03/20 07:46:53;;;;;;;49.40;44.10;;;;;;;1.81;43.74;100452.27;105765;1281;22663;-77
2022/03/20 07:49:21;;;;;;;49.90;44.90;;;;;;;1.90;43.35;100457.58;105651;1281;22556;-76
2022/03/20 07:51:50;;;;;;;48.80;43.80;;;;;;;2.00;43.40;100462.80;105586;1281;22764;-76
2022/03/20 07:54:18;;;;;;;49.60;44.80;;;;;;;2.10;43.33;100466.40;105158;1282;25399;-76
2022/03/20 07:56:45;;;;;;;48.80;44.20;;;;;;;2.21;43.19;100466.00;105450;1281;25443;-76
2022/03/20 07:59:16;;;;;;;53.30;47.50;;;;;;;2.29;42.97;100463.23;105455;1281;22560;-76
2022/03/20 08:01:44;;;;;;;51.10;46.10;;;;;;;2.36;43.04;100465.27;105833;1281;22565;-74
2022/03/20 08:04:12;;;;;;;48.60;43.70;;;;;;;2.43;42.89;100464.58;105600;1281;22700;-76
2022/03/20 08:06:40;;;;;;;48.20;43.60;;;;;;;2.49;42.78;100468.12;105851;1281;24285;-75
2022/03/20 08:09:08;;;;;;;47.40;42.70;;;;;;;2.58;42.77;100468.35;105549;1281;22582;-76
2022/03/20 08:11:35;;;;;;;47.90;43.10;;;;;;;2.67;42.62;100472.74;105509;1281;22560;-78
2022/03/20 08:14:07;;;;;;;46.60;42.30;;;;;;;2.74;42.60;100475.29;105663;1281;23752;-72
2022/03/20 08:16:39;;;;;;;46.10;41.50;;;;;;;2.83;42.63;100479.35;105591;1281;24586;-75
2022/03/20 08:19:11;;;;;;;46.30;41.60;;;;;;;2.93;42.44;100477.92;105570;1281;22715;-76
2022/03/20 08:21:40;;;;;;;47.20;42.30;;;;;;;3.05;42.37;100477.20;105642;1281;22552;-76
2022/03/20 08:24:08;;;;;;;44.30;39.80;;;;;;;3.12;41.83;100480.05;105548;1281;25385;-76
2022/03/20 08:26:36;;;;;;;47.20;42.40;;;;;;;3.17;41.89;100479.77;105835;1280;25133;-74
2022/03/20 08:29:04;;;;;;;46.30;41.70;;;;;;;3.24;41.81;100480.75;105641;1279;25364;-76
2022/03/20 08:31:34;;;;;;;46.00;41.60;;;;;;;3.32;41.59;100478.95;105427;1279;25537;-77
2022/03/20 08:34:04;;;;;;;47.60;43.00;;;;;;;3.40;41.65;100475.60;105582;1280;22865;-76
2022/03/20 08:36:34;;;;;;;48.10;43.30;;;;;;;3.50;41.74;100472.96;105955;1279;22707;-77
2022/03/20 08:39:02;;;;;;;45.90;41.40;;;;;;;3.63;41.68;100474.69;105678;1279;25440;-76
2022/03/20 08:41:31;;;;;;;43.20;38.90;;;;;;;3.78;41.78;100472.73;105449;1280;22607;-76
2022/03/20 08:44:02;;;;;;;47.00;41.60;;;;;;;3.90;41.47;100469.58;105940;1279;25482;-77
2022/03/20 08:46:30;;;;;;;44.70;40.10;;;;;;;4.00;41.33;100466.20;105776;1279;24454;-77
2022/03/20 08:49:03;;;;;;;42.80;38.70;;;;;;;4.07;41.08;100464.20;105638;1279;22547;-75
2022/03/20 08:51:33;;;;;;;41.70;37.80;;;;;;;4.17;41.03;100461.75;105782;1279;22633;-76
2022/03/20 08:54:02;;;;;;;42.30;38.30;;;;;;;4.29;40.85;100462.00;105941;1280;22716;-76
2022/03/20 08:56:30;;;;;;;42.00;37.80;;;;;;;4.43;40.65;100462.90;105944;1280;22637;-76
2022/03/20 08:58:58;;;;;;;43.30;39.10;;;;;;;4.53;40.40;100462.89;105920;1279;25277;-76
2022/03/20 09:01:26;;;;;;;39.60;35.90;;;;;;;4.63;40.48;100463.20;105501;1279;23188;-76
2022/03/20 09:03:54;;;;;;;40.50;36.60;;;;;;;4.74;40.25;100464.31;105718;1279;22651;-76
2022/03/20 09:06:23;;;;;;;39.20;35.20;;;;;;;4.82;40.18;100457.16;105924;1279;25336;-76
2022/03/20 09:08:51;;;;;;;38.40;34.80;;;;;;;4.92;39.75;100453.55;105926;1279;25560;-76
2022/03/20 09:11:21;;;;;;;40.10;35.90;;;;;;;5.02;39.79;100452.12;105713;1279;25382;-75
2022/03/20 09:13:49;;;;;;;38.70;35.00;;;;;;;5.12;39.36;100454.13;105571;1279;24365;-76
2022/03/20 09:19:06;;;;;;;38.40;34.70;;;;;;;5.43;39.46;100447.73;105632;1279;22714;-76
2022/03/20 09:21:38;;;;;;;35.30;31.80;;;;;;;5.57;39.00;100449.92;105929;1279;22674;-76
2022/03/20 09:24:06;;;;;;;35.30;31.90;;;;;;;5.69;39.17;100449.48;105863;1279;22886;-76
2022/03/20 09:26:35;;;;;;;36.40;32.50;;;;;;;5.80;38.43;100447.20;105724;1281;25311;-75
2022/03/20 09:29:04;;;;;;;36.00;32.60;;;;;;;5.89;38.39;100446.09;105148;1282;24880;-75
2022/03/20 09:31:34;;;;;;;34.20;30.90;;;;;;;5.99;38.26;100447.73;105469;1281;24461;-75
2022/03/20 09:34:09;;;;;;;37.10;33.30;;;;;;;6.10;38.10;100447.02;105478;1281;24228;-76
2022/03/20 09:36:37;;;;;;;32.50;29.20;;;;;;;6.20;37.90;100445.95;105478;1281;23919;-76
2022/03/20 09:39:06;;;;;;;30.70;27.90;;;;;;;6.27;37.51;100442.27;105507;1281;25475;-76
2022/03/20 09:41:41;;;;;;;30.90;28.00;;;;;;;6.35;37.15;100442.96;105341;1281;22679;-76
2022/03/20 09:44:10;;;;;;;30.80;27.50;;;;;;;6.47;37.36;100435.03;105553;1281;22947;-75
2022/03/20 09:46:38;;;;;;;31.30;28.00;;;;;;;6.59;37.41;100437.42;105466;1281;22707;-76
2022/03/20 09:49:06;;;;;;;32.60;29.10;;;;;;;6.75;37.37;100432.56;105507;1281;24458;-77
2022/03/20 09:51:35;;;;;;;31.60;28.60;;;;;;;6.91;36.65;100438.56;105494;1281;22566;-76
2022/03/20 09:54:03;;;;;;;31.90;28.70;;;;;;;7.05;36.70;100440.20;105809;1281;25592;-78
2022/03/20 09:56:32;;;;;;;30.40;27.50;;;;;;;7.15;36.34;100437.35;105702;1281;22731;-78
2022/03/20 09:59:00;;;;;;;29.30;26.40;;;;;;;7.23;36.14;100436.69;105690;1281;22705;-77
2022/03/20 10:01:29;;;;;;;26.10;23.70;;;;;;;7.37;36.37;100439.24;105618;1281;23983;-76
2022/03/20 10:04:07;;;;;;;26.70;24.00;;;;;;;7.50;35.35;100434.42;105508;1281;22571;-76
2022/03/20 10:06:37;;;;;;;25.80;22.70;;;;;;;7.58;34.68;100433.51;105776;1281;22595;-76
2022/03/20 10:09:08;;;;;;;25.20;22.90;;;;;;;7.61;34.56;100437.54;105545;1281;26744;-77
2022/03/20 10:12:00;;;;;;;26.70;23.60;;;;;;;7.69;35.16;100439.42;105853;1281;25717;-76
2022/03/20 10:14:32;;;;;;;25.60;22.70;;;;;;;7.84;34.63;100441.23;105820;1281;22554;-79
2022/03/20 10:17:16;;;;;;;25.80;23.20;;;;;;;7.91;34.21;100440.62;105844;1281;23359;-77
2022/03/20 10:19:44;;;;;;;26.00;23.60;;;;;;;7.93;33.46;100443.80;105574;1282;22712;-75
2022/03/20 10:22:17;;;;;;;26.70;24.10;;;;;;;7.99;34.25;100436.42;105644;1281;22649;-77
2022/03/20 10:24:51;;;;;;;26.30;23.80;;;;;;;8.09;33.29;100439.39;105654;1281;22700;-78
2022/03/20 10:27:19;;;;;;;25.00;22.30;;;;;;;8.18;33.18;100445.67;105753;1281;23975;-77
2022/03/20 10:29:55;;;;;;;31.00;20.40;;;;;;;8.21;33.07;100443.50;105783;1281;24224;-76
2022/03/20 10:32:24;;;;;;;25.40;22.80;;;;;;;8.29;32.93;100439.04;105596;1281;22730;-75
2022/03/20 10:34:58;;;;;;;25.60;23.00;;;;;;;8.39;32.83;100435.50;105857;1281;25380;-75
2022/03/20 10:37:43;;;;;;;25.20;22.80;;;;;;;8.55;33.02;100445.13;105748;1280;24181;-77
2022/03/20 10:40:14;;;;;;;23.00;20.60;;;;;;;8.69;32.99;100446.39;105625;1281;22874;-77
2022/03/20 10:43:06;;;;;;;23.40;21.10;;;;;;;8.77;31.81;100443.67;105646;1281;24994;-79
2022/03/20 10:45:54;;;;;;;23.20;20.50;;;;;;;8.81;31.89;100444.60;105781;1281;25645;-77
2022/03/20 10:48:45;;;;;;;23.40;21.20;;;;;;;8.82;31.74;100444.69;105727;1281;22581;-77
2022/03/20 10:51:13;;;;;;;23.90;21.40;;;;;;;8.84;32.09;100439.54;105339;1282;22559;-78
2022/03/20 10:53:56;;;;;;;25.40;21.20;;;;;;;8.90;31.11;100437.85;105790;1281;22742;-76
2022/03/20 10:56:24;;;;;;;48.70;25.10;;;;;;;8.85;31.21;100433.81;105404;1281;25382;-76
2022/03/20 10:58:52;;;;;;;24.60;22.00;;;;;;;8.82;30.99;100434.08;105551;1281;25672;-75
2022/03/20 11:01:35;;;;;;;22.80;20.60;;;;;;;8.91;31.52;100423.80;105551;1281;22565;-78
2022/03/20 11:04:08;;;;;;;24.40;22.10;;;;;;;9.04;31.28;100421.80;105513;1282;22698;-78
2022/03/20 11:06:40;;;;;;;;;;;;;;;9.18;31.94;100419.77;105853;1281;24248;-77
2022/03/20 11:09:08;;;;;;;29.10;23.50;;;;;;;9.31;31.51;100418.27;105825;1281;24257;-75
2022/03/20 11:11:44;;;;;;;25.20;22.50;;;;;;;9.46;31.03;100415.45;105565;1281;22680;-76
2022/03/20 11:14:15;;;;;;;24.80;22.30;;;;;;;9.60;31.20;100410.64;105579;1281;26940;-75
2022/03/20 11:16:46;;;;;;;26.40;23.30;;;;;;;9.68;30.50;100403.08;105533;1281;22915;-75
2022/03/20 11:19:16;;;;;;;24.80;22.10;;;;;;;9.69;30.70;100400.54;105579;1281;25485;-76
2022/03/20 11:21:47;;;;;;;25.90;23.50;;;;;;;9.72;30.50;100398.94;105586;1281;22595;-76
2022/03/20 11:24:16;;;;;;;26.30;23.90;;;;;;;9.72;31.09;100388.42;105586;1281;22573;-77
2022/03/20 11:26:50;;;;;;;25.50;22.60;;;;;;;9.81;30.93;100387.36;105976;1279;22692;-76
2022/03/20 11:29:19;;;;;;;;;;;;;;;9.90;30.13;100384.66;105910;1280;22540;-76
2022/03/20 11:31:48;;;;;;;21.70;19.50;;;;;;;9.98;29.93;100386.04;105923;1279;24581;-76
2022/03/20 11:34:17;;;;;;;22.10;20.10;;;;;;;10.02;29.62;100378.64;105817;1280;22776;-75
2022/03/20 11:37:08;;;;;;;28.50;20.50;;;;;;;10.06;30.01;100374.67;106041;1279;25442;-76
2022/03/20 11:39:38;;;;;;;21.70;19.50;;;;;;;10.22;30.05;100368.10;105991;1279;22577;-75
2022/03/20 11:42:20;;;;;;;24.60;21.90;;;;;;;10.35;30.02;100363.07;105705;1279;23823;-76
2022/03/20 11:44:52;;;;;;;25.60;23.00;;;;;;;10.53;29.76;100370.56;105570;1281;25543;-76
2022/03/20 11:47:22;;;;;;;25.10;22.60;;;;;;;10.60;29.77;100355.73;105771;1279;25296;-76
2022/03/20 11:50:22;;;;;;;22.60;20.20;;;;;;;10.73;29.78;100353.18;105746;1279;22700;-76